Time;durP1;ratioP1;P1;durP2;ratioP2;P2;SDS_P1;SDS_P2;PMS_P1;PMS_P2;Temp;Humidity;BMP_temperature;BMP_pressure;BME280_temperature;BME280_humidity;BME280_pressure;Samples;Min_cycle;Max_cycle;Signal;HPM_P1;HPM_P2
2022/06/21 00:00:37;;;;;;;0.60;0.60;;;27.10;48.00;;;;;;5034660;28;20036;-65
2022/06/21 00:03:07;;;;;;;0.50;0.50;;;27.10;48.00;;;;;;5031836;28;20962;-65
2022/06/21 00:05:42;;;;;;;0.52;0.50;;;27.10;48.00;;;;;;5034057;28;20135;-64
2022/06/21 00:08:14;;;;;;;0.50;0.50;;;27.10;48.00;;;;;;5028107;28;20569;-68
2022/06/21 00:10:40;;;;;;;0.70;0.70;;;27.10;48.00;;;;;;5032864;28;20505;-67
2022/06/21 00:13:12;;;;;;;1.10;0.60;;;27.10;48.00;;;;;;5024112;28;20278;-63
2022/06/21 00:15:39;;;;;;;0.55;0.50;;;27.10;48.00;;;;;;5030687;28;20076;-67
2022/06/21 00:18:08;;;;;;;0.50;0.50;;;27.10;48.00;;;;;;5031119;28;20585;-63
2022/06/21 00:20:34;;;;;;;0.50;0.50;;;27.10;48.10;;;;;;5033295;28;20108;-66
2022/06/21 00:22:59;;;;;;;0.60;0.60;;;27.10;48.00;;;;;;5029907;28;20145;-65
2022/06/21 00:25:26;;;;;;;0.88;0.68;;;27.10;48.10;;;;;;5032860;28;20081;-65
2022/06/21 00:27:53;;;;;;;0.50;0.50;;;27.10;48.00;;;;;;5033770;28;20094;-65
2022/06/21 00:30:20;;;;;;;0.50;0.50;;;27.10;48.00;;;;;;5032494;28;20033;-68
2022/06/21 00:32:48;;;;;;;0.50;0.50;;;27.10;48.00;;;;;;5028888;28;20041;-65
2022/06/21 00:35:17;;;;;;;0.50;0.50;;;27.10;48.00;;;;;;5035104;28;20086;-65
2022/06/21 00:37:43;;;;;;;0.77;0.55;;;27.10;48.00;;;;;;5029734;28;20712;-64
2022/06/21 00:40:24;;;;;;;0.85;0.57;;;27.10;48.00;;;;;;5032756;28;20210;-65
2022/06/21 00:43:07;;;;;;;0.50;0.50;;;27.00;47.90;;;;;;5028960;28;20802;-65
2022/06/21 00:45:37;;;;;;;0.60;0.60;;;27.00;48.00;;;;;;5034180;28;20090;-66
2022/06/21 00:48:10;;;;;;;1.55;0.70;;;27.00;48.00;;;;;;5032753;28;20071;-65
2022/06/21 00:50:42;;;;;;;0.70;0.70;;;27.00;48.00;;;;;;5032609;28;20120;-67
2022/06/21 00:53:35;;;;;;;1.15;0.57;;;27.00;48.00;;;;;;5028310;28;20047;-65
2022/06/21 00:56:14;;;;;;;0.57;0.57;;;27.00;48.00;;;;;;5030757;28;20090;-65
2022/06/21 00:58:40;;;;;;;0.50;0.50;;;27.00;48.00;;;;;;5033183;28;20067;-68
2022/06/21 01:01:21;;;;;;;0.80;0.60;;;27.00;48.00;;;;;;5031661;28;20673;-67
2022/06/21 01:03:56;;;;;;;0.70;0.60;;;27.00;48.00;;;;;;5029994;28;20028;-62
2022/06/21 01:06:31;;;;;;;0.60;0.60;;;27.00;48.00;;;;;;5034753;28;20183;-65
2022/06/21 01:09:22;;;;;;;0.52;0.52;;;27.00;48.00;;;;;;5028996;28;20125;-64
2022/06/21 01:11:57;;;;;;;0.68;0.60;;;27.00;48.00;;;;;;5029822;28;20041;-67
2022/06/21 01:14:24;;;;;;;0.52;0.52;;;27.00;48.10;;;;;;5029662;28;20032;-65
2022/06/21 01:16:52;;;;;;;0.50;0.50;;;27.00;48.60;;;;;;5032716;28;20081;-66
2022/06/21 01:19:32;;;;;;;0.50;0.50;;;27.00;48.10;;;;;;5031368;28;20052;-65
2022/06/21 01:22:13;;;;;;;0.50;0.50;;;27.00;48.10;;;;;;5032320;28;20072;-66
2022/06/21 01:24:59;;;;;;;0.43;0.43;;;27.00;48.10;;;;;;5029361;28;20108;-67
2022/06/21 01:27:25;;;;;;;0.40;0.40;;;27.00;48.00;;;;;;5034281;28;20096;-65
2022/06/21 01:29:53;;;;;;;0.52;0.50;;;27.00;48.00;;;;;;5030676;28;21086;-65
2022/06/21 01:32:18;;;;;;;0.50;0.50;;;27.00;48.00;;;;;;5031236;28;20580;-65
2022/06/21 01:34:44;;;;;;;0.70;0.57;;;27.00;48.10;;;;;;5031047;28;20078;-66
2022/06/21 01:37:19;;;;;;;0.40;0.40;;;27.00;48.00;;;;;;5029592;28;20049;-67
2022/06/21 01:40:02;;;;;;;0.50;0.50;;;27.00;48.00;;;;;;5026582;28;20025;-65
2022/06/21 01:42:32;;;;;;;0.50;0.50;;;27.00;48.10;;;;;;5031712;28;20025;-66
2022/06/21 01:45:04;;;;;;;0.47;0.47;;;27.00;48.10;;;;;;5033242;28;20029;-66
2022/06/21 01:47:41;;;;;;;0.65;0.50;;;27.00;48.10;;;;;;5030896;28;20418;-67
2022/06/21 01:50:09;;;;;;;0.40;0.40;;;27.00;48.10;;;;;;5027908;28;20040;-62
2022/06/21 01:52:38;;;;;;;0.50;0.50;;;27.00;48.10;;;;;;5030647;28;20041;-63
2022/06/21 01:55:19;;;;;;;0.45;0.45;;;27.00;48.10;;;;;;5024487;28;20037;-66
2022/06/21 01:57:47;;;;;;;0.55;0.50;;;27.00;48.10;;;;;;5024950;28;20059;-67
2022/06/21 02:00:14;;;;;;;0.70;0.50;;;27.00;48.10;;;;;;5032576;28;20028;-68
2022/06/21 02:02:51;;;;;;;0.40;0.40;;;26.90;48.00;;;;;;5028522;28;20013;-66
2022/06/21 02:05:25;;;;;;;0.77;0.50;;;27.00;48.10;;;;;;5030090;28;20115;-66
2022/06/21 02:07:56;;;;;;;0.50;0.50;;;27.00;48.10;;;;;;5023936;28;21021;-65
2022/06/21 02:10:37;;;;;;;0.50;0.50;;;27.00;48.10;;;;;;5028629;28;20576;-67
2022/06/21 02:13:12;;;;;;;0.60;0.60;;;26.90;48.00;;;;;;5032758;28;20056;-63
2022/06/21 02:16:08;;;;;;;0.40;0.40;;;26.90;48.00;;;;;;5032153;28;20041;-67
2022/06/21 02:18:39;;;;;;;0.70;0.50;;;26.90;48.00;;;;;;5025827;28;20079;-65
2022/06/21 02:21:15;;;;;;;0.43;0.43;;;26.90;48.00;;;;;;5028726;28;20033;-64
2022/06/21 02:23:41;;;;;;;0.73;0.60;;;26.90;48.10;;;;;;5029382;28;20017;-65
2022/06/21 02:26:10;;;;;;;0.82;0.60;;;26.90;48.10;;;;;;5029763;28;20029;-67
2022/06/21 02:28:37;;;;;;;0.45;0.45;;;26.90;48.00;;;;;;5029902;28;20791;-65
2022/06/21 02:31:02;;;;;;;0.60;0.60;;;26.90;48.00;;;;;;5021792;28;20773;-65
2022/06/21 02:33:32;;;;;;;0.45;0.40;;;26.90;48.00;;;;;;5010511;28;20038;-68
2022/06/21 02:36:03;;;;;;;0.40;0.40;;;26.90;48.00;;;;;;5009516;28;20142;-67
2022/06/21 02:38:37;;;;;;;0.50;0.50;;;26.90;48.00;;;;;;5008551;28;20100;-65
2022/06/21 02:41:13;;;;;;;0.43;0.43;;;26.90;48.00;;;;;;5012853;28;20068;-62
2022/06/21 02:43:43;;;;;;;0.50;0.50;;;26.90;48.00;;;;;;5015958;28;20484;-66
2022/06/21 02:46:19;;;;;;;0.70;0.57;;;26.90;48.10;;;;;;5013643;28;20033;-65
2022/06/21 02:49:07;;;;;;;0.57;0.50;;;26.90;48.60;;;;;;5012081;28;22103;-65
2022/06/21 02:51:57;;;;;;;0.50;0.50;;;26.90;48.00;;;;;;5014357;28;20092;-65
2022/06/21 02:54:40;;;;;;;0.55;0.50;;;26.90;48.10;;;;;;5010515;28;20045;-64
2022/06/21 02:57:22;;;;;;;0.50;0.50;;;26.90;48.10;;;;;;5013000;28;20156;-66
2022/06/21 02:59:50;;;;;;;0.45;0.45;;;26.90;48.10;;;;;;5013183;28;20367;-68
2022/06/21 03:02:21;;;;;;;0.63;0.50;;;26.90;48.10;;;;;;5032561;28;20357;-66
2022/06/21 03:04:55;;;;;;;0.70;0.50;;;26.90;48.10;;;;;;5032666;28;20044;-66
2022/06/21 03:07:24;;;;;;;0.77;0.50;;;26.90;48.10;;;;;;5034956;28;20033;-65
2022/06/21 03:09:52;;;;;;;0.50;0.50;;;26.90;48.10;;;;;;5032542;28;20039;-65
2022/06/21 03:12:24;;;;;;;0.50;0.50;;;26.90;48.10;;;;;;5032099;28;20024;-65
2022/06/21 03:14:53;;;;;;;0.52;0.47;;;26.90;48.10;;;;;;5029755;28;20024;-65
2022/06/21 03:17:23;;;;;;;0.47;0.47;;;26.80;48.10;;;;;;5027356;28;20087;-62
2022/06/21 03:19:52;;;;;;;0.50;0.50;;;26.80;48.10;;;;;;5033338;28;20040;-62
2022/06/21 03:22:25;;;;;;;0.40;0.40;;;26.80;48.10;;;;;;5030629;28;20047;-65
2022/06/21 03:24:54;;;;;;;0.50;0.50;;;26.80;48.10;;;;;;5032662;28;20429;-65
2022/06/21 03:27:48;;;;;;;0.40;0.40;;;26.80;48.00;;;;;;5030713;28;21853;-66
2022/06/21 03:30:16;;;;;;;0.40;0.40;;;26.80;48.00;;;;;;5032116;28;20044;-65
2022/06/21 03:32:43;;;;;;;0.40;0.40;;;26.80;48.00;;;;;;5028606;28;20079;-65
2022/06/21 03:35:10;;;;;;;0.40;0.40;;;26.80;48.10;;;;;;5025812;28;20029;-64
2022/06/21 03:37:39;;;;;;;0.50;0.50;;;26.80;48.00;;;;;;5030371;28;20025;-65
2022/06/21 03:42:54;;;;;;;1.90;0.90;;;26.80;43.60;;;;;;5033274;28;20063;-62
2022/06/21 03:45:31;;;;;;;;;;;26.70;43.40;;;;;;5033785;28;20036;-61
2022/06/21 03:48:10;;;;;;;1.98;0.82;;;26.70;40.70;;;;;;5030894;28;19944;-64
2022/06/21 03:50:43;;;;;;;1.75;0.82;;;26.60;41.50;;;;;;5025391;28;20072;-67
2022/06/21 03:53:20;;;;;;;1.55;0.80;;;26.50;40.30;;;;;;5028703;28;20032;-63
2022/06/21 03:55:57;;;;;;;1.50;0.65;;;26.40;40.00;;;;;;5029629;28;20037;-66
2022/06/21 03:58:38;;;;;;;1.13;0.65;;;26.30;39.90;;;;;;5021218;28;20044;-67
2022/06/21 04:01:21;;;;;;;1.13;0.63;;;26.20;40.10;;;;;;5027589;28;20033;-66
2022/06/21 04:04:13;;;;;;;1.45;0.70;;;26.20;39.50;;;;;;5034778;28;20029;-68
2022/06/21 04:06:59;;;;;;;1.05;0.70;;;26.20;39.20;;;;;;5029253;28;20036;-65
2022/06/21 04:09:38;;;;;;;1.02;0.70;;;26.10;39.20;;;;;;5025828;28;20047;-65
2022/06/21 04:12:04;;;;;;;1.13;0.80;;;26.00;38.70;;;;;;5023172;28;20026;-65
2022/06/21 04:14:39;;;;;;;1.20;0.70;;;25.90;39.70;;;;;;5032230;28;20032;-65
2022/06/21 04:17:22;;;;;;;0.85;0.60;;;26.00;40.30;;;;;;5032028;28;20061;-66
2022/06/21 04:20:03;;;;;;;1.05;0.70;;;26.00;40.10;;;;;;5034014;28;20116;-67
2022/06/21 04:22:39;;;;;;;0.75;0.63;;;25.90;40.00;;;;;;5031371;28;20076;-63
2022/06/21 04:25:16;;;;;;;0.75;0.65;;;25.80;40.40;;;;;;5024997;28;20029;-64
2022/06/21 04:28:02;;;;;;;1.38;0.70;;;25.70;40.20;;;;;;5033698;28;20337;-61
2022/06/21 04:30:32;;;;;;;0.85;0.55;;;25.70;40.40;;;;;;5027227;28;20795;-66
2022/06/21 04:33:15;;;;;;;1.75;0.70;;;25.60;40.30;;;;;;5032901;28;20116;-67
2022/06/21 04:35:50;;;;;;;1.23;0.60;;;25.60;40.60;;;;;;5029478;28;20043;-64
2022/06/21 04:38:46;;;;;;;1.65;0.60;;;25.60;41.10;;;;;;5032801;28;20404;-63
2022/06/21 04:41:24;;;;;;;1.30;0.70;;;25.60;40.80;;;;;;5030029;28;20033;-64
2022/06/21 04:43:57;;;;;;;1.15;0.70;;;25.60;40.80;;;;;;5030485;28;20071;-65
2022/06/21 04:46:46;;;;;;;2.00;0.70;;;25.50;41.50;;;;;;5026879;28;20052;-67
2022/06/21 04:49:28;;;;;;;1.08;0.60;;;25.50;41.20;;;;;;5027553;28;20025;-64
2022/06/21 04:52:00;;;;;;;1.25;0.60;;;25.50;41.40;;;;;;5024173;28;20467;-65
2022/06/21 04:54:29;;;;;;;1.40;0.70;;;25.50;41.60;;;;;;5026179;28;20107;-65
2022/06/21 04:57:12;;;;;;;2.17;0.60;;;25.40;41.70;;;;;;5032325;28;20029;-65
2022/06/21 05:00:04;;;;;;;0.90;0.50;;;25.50;41.80;;;;;;5028616;28;20136;-66
2022/06/21 05:02:38;;;;;;;1.02;0.60;;;25.50;42.00;;;;;;5005855;28;20052;-67
2022/06/21 05:05:06;;;;;;;1.73;0.70;;;25.50;42.20;;;;;;5006100;28;20037;-68
2022/06/21 05:07:42;;;;;;;1.05;0.60;;;25.50;42.20;;;;;;5011940;28;20057;-68
2022/06/21 05:10:15;;;;;;;0.98;0.57;;;25.50;42.30;;;;;;5005332;28;20471;-66
2022/06/21 05:12:43;;;;;;;1.00;0.60;;;25.50;42.50;;;;;;5011618;28;20025;-65
2022/06/21 05:15:23;;;;;;;1.23;0.60;;;25.50;42.60;;;;;;5014109;28;20122;-63
2022/06/21 05:17:54;;;;;;;0.68;0.50;;;25.50;42.60;;;;;;5014228;28;20731;-65
2022/06/21 05:20:26;;;;;;;0.90;0.70;;;25.50;42.80;;;;;;5011581;28;20034;-60
2022/06/21 05:22:54;;;;;;;1.27;0.68;;;25.50;42.90;;;;;;5011358;28;20033;-62
2022/06/21 05:25:36;;;;;;;0.73;0.57;;;25.50;43.00;;;;;;5012397;28;20036;-66
2022/06/21 05:28:25;;;;;;;0.88;0.68;;;25.50;43.10;;;;;;5008160;28;20037;-62
2022/06/21 05:30:55;;;;;;;1.10;0.65;;;25.50;43.10;;;;;;5011129;28;20048;-68
2022/06/21 05:33:32;;;;;;;0.52;0.50;;;25.50;43.30;;;;;;5014624;28;20139;-65
2022/06/21 05:35:58;;;;;;;1.00;0.60;;;25.50;43.30;;;;;;5011436;28;20040;-65
2022/06/21 05:38:28;;;;;;;1.20;0.60;;;25.50;43.40;;;;;;5009381;28;20045;-66
2022/06/21 05:41:29;;;;;;;0.60;0.55;;;25.50;43.40;;;;;;5009896;28;20111;-68
2022/06/21 05:44:12;;;;;;;0.60;0.60;;;25.50;43.50;;;;;;5013736;28;20052;-65
2022/06/21 05:46:45;;;;;;;1.50;0.60;;;25.50;43.60;;;;;;5013499;28;20524;-65
2022/06/21 05:49:25;;;;;;;0.63;0.40;;;25.50;43.70;;;;;;5007331;28;20538;-68
2022/06/21 05:51:54;;;;;;;1.45;0.60;;;25.50;43.70;;;;;;5012904;28;20462;-65
2022/06/21 05:54:25;;;;;;;0.43;0.40;;;25.50;43.80;;;;;;5011134;28;20025;-66
2022/06/21 05:56:51;;;;;;;1.17;0.50;;;25.50;43.90;;;;;;5025432;28;20061;-64
2022/06/21 05:59:20;;;;;;;0.75;0.60;;;25.50;44.00;;;;;;5009188;28;20060;-63
2022/06/21 06:02:08;;;;;;;1.98;0.60;;;25.50;44.00;;;;;;5010007;28;20057;-65
2022/06/21 06:04:44;;;;;;;0.82;0.60;;;25.50;44.00;;;;;;5011582;28;20022;-67
2022/06/21 06:07:14;;;;;;;0.77;0.60;;;25.50;44.10;;;;;;5008159;28;20829;-67
2022/06/21 06:09:43;;;;;;;0.85;0.60;;;25.50;44.20;;;;;;5009038;28;20029;-66
2022/06/21 06:12:22;;;;;;;0.73;0.50;;;25.50;44.20;;;;;;5011976;28;20140;-66
2022/06/21 06:15:11;;;;;;;1.02;0.50;;;25.50;44.20;;;;;;5016061;28;20029;-63
2022/06/21 06:17:57;;;;;;;0.50;0.50;;;25.50;44.40;;;;;;5015165;28;20147;-65
2022/06/21 06:20:41;;;;;;;0.75;0.50;;;25.50;44.30;;;;;;5013992;28;20113;-65
2022/06/21 06:23:24;;;;;;;0.70;0.40;;;25.50;44.40;;;;;;5012843;28;20605;-65
2022/06/21 06:26:04;;;;;;;0.57;0.50;;;25.50;44.50;;;;;;5014486;28;20418;-66
2022/06/21 06:28:38;;;;;;;;;;;25.50;44.50;;;;;;5017800;28;20052;-65
2022/06/21 06:31:09;;;;;;;1.20;0.60;;;25.50;44.50;;;;;;5015245;28;19999;-68
2022/06/21 06:33:49;;;;;;;1.27;0.70;;;25.50;44.60;;;;;;5017216;28;20030;-62
2022/06/21 06:36:17;;;;;;;0.90;0.60;;;25.50;44.60;;;;;;5013035;28;20174;-66
2022/06/21 06:38:43;;;;;;;0.60;0.60;;;25.50;44.60;;;;;;5012796;28;20052;-62
2022/06/21 06:41:32;;;;;;;1.13;0.60;;;25.50;44.60;;;;;;5012208;28;20025;-66
2022/06/21 06:44:03;;;;;;;0.93;0.50;;;25.50;44.70;;;;;;5017694;28;20160;-68
2022/06/21 06:46:39;;;;;;;0.50;0.50;;;25.50;44.70;;;;;;5013743;28;20151;-65
2022/06/21 06:49:27;;;;;;;1.27;0.60;;;25.50;44.80;;;;;;4995113;28;20377;-67
2022/06/21 06:52:17;;;;;;;0.88;0.60;;;25.50;44.80;;;;;;5014958;28;20449;-66
2022/06/21 06:55:11;;;;;;;0.80;0.60;;;25.50;44.80;;;;;;5016211;28;20045;-65
2022/06/21 06:57:42;;;;;;;0.65;0.52;;;25.50;44.90;;;;;;5014698;28;20218;-62
2022/06/21 07:00:48;;;;;;;0.60;0.47;;;25.50;44.90;;;;;;5015164;28;20040;-64
2022/06/21 07:03:36;;;;;;;0.90;0.68;;;25.50;44.90;;;;;;5012778;28;20072;-68
2022/06/21 07:06:26;;;;;;;0.40;0.40;;;25.50;44.90;;;;;;5014440;28;20554;-63
2022/06/21 07:08:58;;;;;;;1.02;0.50;;;25.50;45.00;;;;;;5011947;28;20041;-68
2022/06/21 07:11:27;;;;;;;0.93;0.50;;;25.50;45.00;;;;;;5012168;28;20080;-65
2022/06/21 07:13:53;;;;;;;0.82;0.60;;;25.50;45.00;;;;;;5014155;28;20029;-65
2022/06/21 07:16:22;;;;;;;0.77;0.52;;;25.50;45.00;;;;;;5017831;28;20052;-65
2022/06/21 07:18:50;;;;;;;0.68;0.57;;;25.50;45.10;;;;;;5014640;28;20035;-68
2022/06/21 07:21:18;;;;;;;0.50;0.50;;;25.50;45.10;;;;;;5014862;28;20062;-65
2022/06/21 07:23:44;;;;;;;0.55;0.40;;;25.50;45.10;;;;;;5014791;28;20018;-66
2022/06/21 07:26:10;;;;;;;0.98;0.57;;;25.50;45.10;;;;;;5014344;28;20390;-65
2022/06/21 07:29:07;;;;;;;0.80;0.60;;;25.50;45.10;;;;;;5014221;28;20038;-62
2022/06/21 07:31:45;;;;;;;0.40;0.40;;;25.50;45.10;;;;;;5010050;28;20549;-64
2022/06/21 07:34:17;;;;;;;0.40;0.40;;;25.50;45.10;;;;;;5016050;28;20021;-64
2022/06/21 07:36:58;;;;;;;0.50;0.50;;;25.50;45.20;;;;;;5011094;28;20087;-66
2022/06/21 07:39:39;;;;;;;0.80;0.45;;;25.50;45.20;;;;;;5011138;28;20021;-63
2022/06/21 07:42:19;;;;;;;0.55;0.50;;;25.50;45.20;;;;;;5015318;28;20030;-68
2022/06/21 07:44:58;;;;;;;1.00;0.60;;;25.50;45.20;;;;;;5016453;28;20026;-65
2022/06/21 07:47:28;;;;;;;0.80;0.55;;;25.50;45.20;;;;;;5012099;28;20386;-67
2022/06/21 07:50:00;;;;;;;0.57;0.50;;;25.50;45.30;;;;;;5015306;28;20121;-62
2022/06/21 07:52:29;;;;;;;0.68;0.52;;;25.60;45.30;;;;;;5014159;28;20454;-65
2022/06/21 07:55:00;;;;;;;0.47;0.47;;;25.50;45.30;;;;;;5014061;28;20060;-66
2022/06/21 07:57:39;;;;;;;0.60;0.50;;;25.50;45.30;;;;;;5013374;28;20052;-63
2022/06/21 08:00:13;;;;;;;0.73;0.50;;;25.50;45.30;;;;;;5011374;28;20037;-64
2022/06/21 08:08:44;;;;;;;0.60;0.50;;;25.60;45.40;;;;;;5011364;28;20041;-67
2022/06/21 08:11:15;;;;;;;0.90;0.50;;;25.60;45.50;;;;;;5009845;28;20048;-65
2022/06/21 08:13:43;;;;;;;0.77;0.60;;;25.60;45.50;;;;;;5012445;28;20147;-64
2022/06/21 08:16:24;;;;;;;1.42;0.70;;;25.60;45.50;;;;;;5014559;28;20061;-65
2022/06/21 08:19:25;;;;;;;0.60;0.57;;;25.60;45.50;;;;;;5014000;28;20025;-67
2022/06/21 08:22:10;;;;;;;0.68;0.65;;;25.60;45.50;;;;;;5010322;28;20063;-65
2022/06/21 08:25:02;;;;;;;1.55;0.60;;;25.60;45.50;;;;;;5007907;28;20121;-66
2022/06/21 08:27:39;;;;;;;0.50;0.50;;;25.50;45.50;;;;;;5011262;28;20370;-68
2022/06/21 08:30:22;;;;;;;0.50;0.50;;;25.60;45.60;;;;;;5014034;28;20109;-68
2022/06/21 08:32:52;;;;;;;0.50;0.50;;;25.60;45.60;;;;;;5006871;28;20385;-67
2022/06/21 08:35:33;;;;;;;0.50;0.50;;;25.60;45.60;;;;;;5012574;28;20033;-68
2022/06/21 08:38:09;;;;;;;0.50;0.50;;;25.60;45.60;;;;;;5004063;28;20133;-62
2022/06/21 08:41:51;;;;;;;0.40;0.40;;;25.60;45.60;;;;;;5012156;28;20438;-68
2022/06/21 08:44:11;;;;;;;0.70;0.60;;;25.60;45.60;;;;;;5007209;28;20354;-66
2022/06/21 08:47:02;;;;;;;0.70;0.60;;;25.60;45.60;;;;;;5011165;28;20026;-68
2022/06/21 08:50:03;;;;;;;0.50;0.45;;;25.50;45.60;;;;;;5013757;28;20034;-62
2022/06/21 08:52:31;;;;;;;0.90;0.50;;;25.60;45.70;;;;;;5011108;28;20099;-63
2022/06/21 08:55:01;;;;;;;0.80;0.60;;;25.60;45.70;;;;;;5011673;28;20136;-65
2022/06/21 08:57:47;;;;;;;0.80;0.70;;;25.60;45.70;;;;;;5015725;28;20045;-64
2022/06/21 09:00:33;;;;;;;0.75;0.50;;;25.60;45.70;;;;;;5014475;28;20037;-65
2022/06/21 09:02:58;;;;;;;0.77;0.60;;;25.60;45.70;;;;;;5011808;28;20057;-67
2022/06/21 09:05:46;;;;;;;0.80;0.50;;;25.60;45.70;;;;;;5014249;28;20112;-66
2022/06/21 09:08:30;;;;;;;0.57;0.57;;;25.60;45.70;;;;;;5011108;28;20048;-67
2022/06/21 09:11:27;;;;;;;0.52;0.50;;;25.70;46.30;;;;;;5012953;28;20107;-65
2022/06/21 09:14:02;;;;;;;0.47;0.47;;;25.60;45.70;;;;;;5012092;28;20034;-65
2022/06/21 09:16:53;;;;;;;0.60;0.60;;;25.60;45.70;;;;;;5014727;28;20033;-68
2022/06/21 09:19:22;;;;;;;0.60;0.52;;;25.60;45.70;;;;;;5015397;28;20037;-67
2022/06/21 09:22:14;;;;;;;0.70;0.50;;;25.60;45.80;;;;;;5011658;28;20382;-62
2022/06/21 09:24:41;;;;;;;0.60;0.57;;;25.60;45.70;;;;;;5007379;28;20029;-65
2022/06/21 09:27:10;;;;;;;0.60;0.50;;;25.60;45.70;;;;;;5014451;28;20461;-65
2022/06/21 09:29:59;;;;;;;0.55;0.52;;;25.60;45.70;;;;;;5011870;28;20036;-67
2022/06/21 09:32:27;;;;;;;1.30;0.70;;;25.60;45.80;;;;;;5008076;28;20408;-63
2022/06/21 09:35:22;;;;;;;0.60;0.60;;;25.60;45.80;;;;;;5010925;28;20110;-63
2022/06/21 09:37:47;;;;;;;0.40;0.40;;;25.60;45.80;;;;;;5009000;28;20119;-66
2022/06/21 09:40:46;;;;;;;0.80;0.57;;;25.70;45.80;;;;;;5011024;28;20029;-63
2022/06/21 09:43:37;;;;;;;0.75;0.60;;;25.70;45.80;;;;;;5013580;28;20120;-66
2022/06/21 09:46:22;;;;;;;0.50;0.50;;;25.70;45.90;;;;;;5011126;28;20137;-64
2022/06/21 09:49:01;;;;;;;0.43;0.43;;;25.70;45.90;;;;;;5007474;28;20045;-64
2022/06/21 09:51:56;;;;;;;0.50;0.40;;;25.70;45.90;;;;;;5013020;28;20477;-66
2022/06/21 09:54:34;;;;;;;0.57;0.50;;;25.70;45.90;;;;;;5005863;28;20037;-67
2022/06/21 09:57:41;;;;;;;0.88;0.43;;;25.60;45.80;;;;;;5011806;28;20029;-66
2022/06/21 10:00:37;;;;;;;0.75;0.50;;;25.70;46.00;;;;;;5010614;28;20469;-62
2022/06/21 10:03:10;;;;;;;0.63;0.50;;;25.70;46.00;;;;;;5007113;28;20049;-64
2022/06/21 10:05:41;;;;;;;0.50;0.50;;;25.70;46.00;;;;;;5012582;28;20041;-63
2022/06/21 10:08:14;;;;;;;0.77;0.60;;;25.70;46.00;;;;;;5008350;28;20885;-64
2022/06/21 10:10:45;;;;;;;0.55;0.55;;;25.70;46.00;;;;;;5012901;28;20025;-66
2022/06/21 10:13:36;;;;;;;0.88;0.50;;;25.60;45.90;;;;;;5010772;28;20052;-65
2022/06/21 10:16:39;;;;;;;0.77;0.55;;;25.70;46.00;;;;;;5011960;28;20036;-64
2022/06/21 10:19:11;;;;;;;0.82;0.50;;;25.70;46.00;;;;;;5009109;28;20038;-62
2022/06/21 10:22:06;;;;;;;0.77;0.60;;;25.70;46.00;;;;;;5007972;28;20048;-62
2022/06/21 10:25:00;;;;;;;0.50;0.40;;;25.70;46.00;;;;;;4990683;28;20401;-63
2022/06/21 10:27:40;;;;;;;0.50;0.50;;;25.60;46.00;;;;;;5012055;28;20733;-64
2022/06/21 10:30:43;;;;;;;;;;;25.70;46.10;;;;;;5010690;28;20026;-66
2022/06/21 10:33:33;;;;;;;0.82;0.70;;;25.70;46.10;;;;;;5009286;28;19913;-68
2022/06/21 10:36:13;;;;;;;0.77;0.52;;;25.70;46.10;;;;;;5002558;28;20081;-66
2022/06/21 10:38:58;;;;;;;0.60;0.55;;;25.70;46.20;;;;;;5003946;28;20485;-62
2022/06/21 10:44:57;;;;;;;0.57;0.50;;;25.70;46.10;;;;;;5005810;28;20095;-67
2022/06/21 10:48:07;;;;;;;0.73;0.50;;;25.60;46.10;;;;;;4992255;28;20034;-67
2022/06/21 10:51:00;;;;;;;0.77;0.50;;;25.70;46.10;;;;;;5013095;28;20029;-67
2022/06/21 10:54:05;;;;;;;0.55;0.50;;;25.70;46.10;;;;;;5004612;28;20034;-65
2022/06/21 10:57:16;;;;;;;1.20;0.60;;;25.60;46.10;;;;;;5008701;28;20022;-64
2022/06/21 11:03:35;;;;;;;0.60;0.47;;;25.60;46.10;;;;;;5015916;28;20121;-64
2022/06/21 11:06:38;;;;;;;0.80;0.52;;;25.70;46.10;;;;;;5014760;28;20080;-65
2022/06/21 11:09:39;;;;;;;1.13;0.60;;;25.70;46.10;;;;;;5011108;28;20037;-62
2022/06/21 11:15:01;;;;;;;0.70;0.57;;;25.70;46.20;;;;;;5009649;28;20036;-65
2022/06/21 11:17:43;;;;;;;0.75;0.50;;;25.60;46.10;;;;;;5014309;28;20120;-65
2022/06/21 11:20:22;;;;;;;0.68;0.50;;;25.70;46.20;;;;;;5014308;28;20025;-63
2022/06/21 11:22:59;;;;;;;0.65;0.52;;;25.70;46.20;;;;;;5008381;28;20068;-66
2022/06/21 11:25:48;;;;;;;0.77;0.60;;;25.70;46.20;;;;;;5007214;28;20030;-66
2022/06/21 11:28:25;;;;;;;0.50;0.50;;;25.70;46.20;;;;;;5001191;28;20049;-69
2022/06/21 11:31:19;;;;;;;0.63;0.50;;;25.70;46.10;;;;;;5011081;28;20072;-64
2022/06/21 11:34:13;;;;;;;0.50;0.50;;;25.70;46.10;;;;;;5011015;28;20127;-64
2022/06/21 11:37:19;;;;;;;0.50;0.50;;;25.70;46.10;;;;;;5012582;28;20037;-64
2022/06/21 11:40:16;;;;;;;0.93;0.68;;;25.70;46.10;;;;;;4999914;28;20336;-65
2022/06/21 11:42:52;;;;;;;0.63;0.50;;;25.70;46.60;;;;;;5009081;28;20413;-64
2022/06/21 11:45:17;;;;;;;0.82;0.60;;;25.70;46.10;;;;;;5004033;28;20068;-65
2022/06/21 11:48:23;;;;;;;0.63;0.60;;;25.70;46.10;;;;;;5009033;28;20815;-64
2022/06/21 11:51:09;;;;;;;0.52;0.50;;;25.70;46.10;;;;;;5011324;28;20063;-65
2022/06/21 11:54:01;;;;;;;0.75;0.60;;;25.70;46.60;;;;;;5002833;28;20048;-66
2022/06/21 11:56:36;;;;;;;1.40;0.60;;;25.70;46.10;;;;;;4999870;28;20092;-64
2022/06/21 11:59:20;;;;;;;0.50;0.50;;;25.80;46.20;;;;;;4991011;28;20046;-67
2022/06/21 12:02:21;;;;;;;0.77;0.63;;;25.70;46.20;;;;;;5002087;28;20034;-66
2022/06/21 12:05:16;;;;;;;0.63;0.50;;;25.70;46.10;;;;;;5009143;28;20018;-62
2022/06/21 12:08:02;;;;;;;0.98;0.50;;;25.70;46.10;;;;;;5009473;28;20038;-63
2022/06/21 12:10:51;;;;;;;0.95;0.60;;;25.80;46.10;;;;;;5012064;28;20040;-65
2022/06/21 12:13:19;;;;;;;;;;;25.70;46.00;;;;;;5010735;28;20115;-66
2022/06/21 12:16:22;;;;;;;0.88;0.60;;;25.80;46.10;;;;;;5013847;28;19916;-62
2022/06/21 12:18:53;;;;;;;0.82;0.60;;;25.80;46.10;;;;;;5011449;28;20033;-63
2022/06/21 12:21:26;;;;;;;0.95;0.60;;;25.80;46.10;;;;;;5012544;28;20032;-68
2022/06/21 12:24:08;;;;;;;0.75;0.60;;;25.70;46.00;;;;;;4996886;28;20140;-66
2022/06/21 12:26:35;;;;;;;0.60;0.60;;;25.70;46.00;;;;;;5010112;28;20615;-66
2022/06/21 12:29:13;;;;;;;0.82;0.60;;;25.70;46.00;;;;;;5009747;28;20305;-68
2022/06/21 12:31:48;;;;;;;0.70;0.60;;;25.70;46.00;;;;;;5010304;28;20038;-66
2022/06/21 12:34:18;;;;;;;0.70;0.60;;;25.80;46.10;;;;;;5007980;28;20088;-68
2022/06/21 12:36:57;;;;;;;0.60;0.57;;;25.80;46.10;;;;;;5008943;28;20068;-64
2022/06/21 12:39:37;;;;;;;0.97;0.60;;;25.80;46.10;;;;;;5002372;28;20033;-65
2022/06/21 12:42:08;;;;;;;0.68;0.60;;;25.80;46.00;;;;;;5012514;28;20029;-66
2022/06/21 12:44:52;;;;;;;0.77;0.47;;;25.80;46.00;;;;;;5009366;28;20045;-65
2022/06/21 12:47:56;;;;;;;0.73;0.50;;;25.80;46.00;;;;;;5009216;28;20025;-66
2022/06/21 12:50:45;;;;;;;0.50;0.50;;;25.90;46.60;;;;;;5013995;28;20520;-68
2022/06/21 12:53:34;;;;;;;0.60;0.50;;;25.80;46.00;;;;;;5002118;28;20641;-64
2022/06/21 12:56:22;;;;;;;0.98;0.60;;;25.80;46.00;;;;;;5003727;28;20040;-65
2022/06/21 12:59:15;;;;;;;0.65;0.60;;;25.80;46.00;;;;;;5005953;28;20047;-64
2022/06/21 13:02:11;;;;;;;0.70;0.60;;;25.80;46.00;;;;;;5009539;28;20042;-63
2022/06/21 13:04:51;;;;;;;0.57;0.57;;;25.90;46.00;;;;;;5011145;28;20718;-65
2022/06/21 13:07:53;;;;;;;0.65;0.50;;;25.90;46.00;;;;;;5012297;28;20085;-68
2022/06/21 13:10:43;;;;;;;0.55;0.52;;;25.90;46.00;;;;;;5006907;28;20116;-67
2022/06/21 13:13:22;;;;;;;0.57;0.57;;;25.90;46.00;;;;;;5012603;28;20056;-63
2022/06/21 13:16:15;;;;;;;0.50;0.50;;;25.90;46.00;;;;;;5003460;28;20033;-67
2022/06/21 13:18:52;;;;;;;0.60;0.60;;;25.90;46.00;;;;;;5008738;28;20029;-63
2022/06/21 13:21:42;;;;;;;0.77;0.50;;;25.90;46.00;;;;;;5007137;28;20393;-65
2022/06/21 13:24:22;;;;;;;0.57;0.57;;;25.90;46.00;;;;;;5008245;28;20063;-65
2022/06/21 13:27:00;;;;;;;0.90;0.60;;;25.90;46.00;;;;;;5004372;28;20134;-63
2022/06/21 13:29:37;;;;;;;1.20;0.70;;;25.90;46.00;;;;;;5007044;28;20030;-65
2022/06/21 13:32:08;;;;;;;0.82;0.60;;;25.90;46.00;;;;;;5008079;28;20073;-63
2022/06/21 13:34:36;;;;;;;1.58;0.80;;;25.90;46.00;;;;;;5001856;28;20030;-68
2022/06/21 13:37:22;;;;;;;1.00;0.90;;;25.90;45.30;;;;;;5000141;28;20033;-65
2022/06/21 13:40:06;;;;;;;2.13;1.00;;;25.90;44.70;;;;;;5004729;28;20126;-68
2022/06/21 13:42:45;;;;;;;1.30;0.90;;;25.90;44.20;;;;;;5008431;28;20029;-68
2022/06/21 13:45:35;;;;;;;1.30;0.90;;;25.80;44.00;;;;;;5005904;28;20057;-62
2022/06/21 13:48:16;;;;;;;2.15;1.08;;;25.80;43.60;;;;;;5008427;28;20099;-68
2022/06/21 13:50:57;;;;;;;1.90;1.00;;;25.80;43.60;;;;;;5006412;28;20089;-63
2022/06/21 13:53:26;;;;;;;1.60;1.00;;;25.80;43.70;;;;;;5001470;28;20131;-63
2022/06/21 13:56:05;;;;;;;1.83;1.17;;;25.80;43.80;;;;;;5007505;28;20047;-67
2022/06/21 13:58:40;;;;;;;1.92;1.08;;;25.90;44.00;;;;;;5001824;28;20138;-64
2022/06/21 14:01:13;;;;;;;1.52;0.95;;;25.80;43.80;;;;;;5006827;28;20052;-67
2022/06/21 14:03:39;;;;;;;1.60;1.00;;;25.80;43.90;;;;;;5003925;28;20151;-64
2022/06/21 14:06:21;;;;;;;1.27;0.90;;;25.90;44.00;;;;;;5007608;28;20025;-66